EGHQ

Newquay Cornwall Airport

Newquay, United Kingdom
METAR EGHQ 241150Z 01008KT 330V030 9999 FEW030 13/06 Q1039
Observed Flight Rules
Sep-24 @ 11:50 UTC (18 minutes ago) Visual Flight Rules
Wind Visibility Clouds
10° at 8 knots 10,000+ meters
  • Few at 3,000' AGL
Temperatures Readings
Current 13°C / 55°F
Dewpoint 6°C / 43°F
Humidity 63%
Altimeter 30.68" Hg
Pressure 1039 hPa
Elevation 119
METAR EGHQ 241150Z 01008KT 330V030 9999 FEW030 13/06 Q1039
Observed Flight Rules
Sep-24 @ 11:50 UTC
(18 minutes ago)
VFR
Wind Visibility
10° at 8 knots 10,000+ meters
Clouds
  • Few at 3,000' AGL
Temperature Dewpoint
13°C / 55°F 6°C / 43°F
Humidity Altimeter Pressure
63% 30.68" Hg 1039 hPa